sensor_id;sensor_type;location;lat;lon;timestamp;pressure;altitude;pressure_sealevel;temperature;humidity
13312;BME280;34033;48.672;9.376;2023-06-14T00:01:13;98036.63;;;18.81;44.18
13312;BME280;34033;48.672;9.376;2023-06-14T00:03:39;98033.59;;;18.75;44.37
13312;BME280;34033;48.672;9.376;2023-06-14T00:06:04;98038.00;;;18.76;44.31
13312;BME280;34033;48.672;9.376;2023-06-14T00:08:30;98037.34;;;18.72;44.21
13312;BME280;34033;48.672;9.376;2023-06-14T00:10:55;98036.69;;;18.68;44.08
13312;BME280;34033;48.672;9.376;2023-06-14T00:13:20;98027.84;;;18.66;43.58
13312;BME280;34033;48.672;9.376;2023-06-14T00:15:46;98029.88;;;18.65;43.41
13312;BME280;34033;48.672;9.376;2023-06-14T00:18:12;98033.63;;;18.62;42.88
13312;BME280;34033;48.672;9.376;2023-06-14T00:20:38;98033.94;;;18.52;42.95
13312;BME280;34033;48.672;9.376;2023-06-14T00:23:04;98030.63;;;18.53;42.55
13312;BME280;34033;48.672;9.376;2023-06-14T00:25:30;98035.00;;;18.58;42.69
13312;BME280;34033;48.672;9.376;2023-06-14T00:27:56;98035.09;;;18.54;43.14
13312;BME280;34033;48.672;9.376;2023-06-14T00:30:21;98039.38;;;18.59;43.14
13312;BME280;34033;48.672;9.376;2023-06-14T00:32:47;98034.06;;;18.61;43.03
13312;BME280;34033;48.672;9.376;2023-06-14T00:35:13;98035.09;;;18.54;43.44
13312;BME280;34033;48.672;9.376;2023-06-14T00:37:39;98036.75;;;18.26;43.95
13312;BME280;34033;48.672;9.376;2023-06-14T00:40:06;98044.31;;;18.04;44.21
13312;BME280;34033;48.672;9.376;2023-06-14T00:42:32;98039.19;;;17.86;44.79
13312;BME280;34033;48.672;9.376;2023-06-14T00:44:57;98037.81;;;17.78;44.73
13312;BME280;34033;48.672;9.376;2023-06-14T00:47:23;98036.66;;;17.76;45.31
13312;BME280;34033;48.672;9.376;2023-06-14T00:49:49;98040.59;;;17.66;45.46
13312;BME280;34033;48.672;9.376;2023-06-14T00:52:16;98038.22;;;17.64;45.01
13312;BME280;34033;48.672;9.376;2023-06-14T00:54:42;98038.72;;;17.59;45.68
13312;BME280;34033;48.672;9.376;2023-06-14T00:57:09;98041.28;;;17.70;45.75
13312;BME280;34033;48.672;9.376;2023-06-14T00:59:40;98035.97;;;17.72;45.53
13312;BME280;34033;48.672;9.376;2023-06-14T01:02:07;98038.50;;;17.82;45.11
13312;BME280;34033;48.672;9.376;2023-06-14T01:04:32;98042.78;;;17.87;44.74
13312;BME280;34033;48.672;9.376;2023-06-14T01:07:12;98034.66;;;17.89;44.71
13312;BME280;34033;48.672;9.376;2023-06-14T01:09:56;98041.22;;;17.86;44.82
13312;BME280;34033;48.672;9.376;2023-06-14T01:12:31;98033.50;;;17.74;45.28
13312;BME280;34033;48.672;9.376;2023-06-14T01:15:00;98040.78;;;17.59;45.83
13312;BME280;34033;48.672;9.376;2023-06-14T01:17:26;98034.28;;;17.45;45.79
13312;BME280;34033;48.672;9.376;2023-06-14T01:19:52;98040.66;;;17.33;46.61
13312;BME280;34033;48.672;9.376;2023-06-14T01:22:25;98040.16;;;17.22;47.19
13312;BME280;34033;48.672;9.376;2023-06-14T01:24:50;98037.72;;;17.08;47.88
13312;BME280;34033;48.672;9.376;2023-06-14T01:27:23;98049.59;;;16.87;48.87
13312;BME280;34033;48.672;9.376;2023-06-14T01:29:51;98048.00;;;16.86;49.13
13312;BME280;34033;48.672;9.376;2023-06-14T01:32:23;98049.75;;;16.80;49.29
13312;BME280;34033;48.672;9.376;2023-06-14T01:34:48;98053.09;;;16.75;49.88
13312;BME280;34033;48.672;9.376;2023-06-14T01:37:14;98050.09;;;16.82;49.87
13312;BME280;34033;48.672;9.376;2023-06-14T01:39:40;98047.78;;;16.93;49.04
13312;BME280;34033;48.672;9.376;2023-06-14T01:42:07;98051.94;;;17.04;48.48
13312;BME280;34033;48.672;9.376;2023-06-14T01:44:33;98048.22;;;17.07;48.38
13312;BME280;34033;48.672;9.376;2023-06-14T01:46:58;98050.63;;;17.09;48.27
13312;BME280;34033;48.672;9.376;2023-06-14T01:49:24;98043.16;;;17.15;47.94
13312;BME280;34033;48.672;9.376;2023-06-14T01:51:49;98043.34;;;17.24;47.74
13312;BME280;34033;48.672;9.376;2023-06-14T01:54:14;98043.50;;;17.33;47.41
13312;BME280;34033;48.672;9.376;2023-06-14T01:56:40;98046.75;;;17.32;47.35
13312;BME280;34033;48.672;9.376;2023-06-14T01:59:05;98053.41;;;17.25;47.72
13312;BME280;34033;48.672;9.376;2023-06-14T02:01:30;98044.97;;;16.93;48.89
13312;BME280;34033;48.672;9.376;2023-06-14T02:03:56;98050.09;;;16.65;49.85
13312;BME280;34033;48.672;9.376;2023-06-14T02:06:21;98052.06;;;16.49;49.84
13312;BME280;34033;48.672;9.376;2023-06-14T02:08:46;98045.28;;;16.30;50.38
13312;BME280;34033;48.672;9.376;2023-06-14T02:11:12;98056.06;;;16.15;51.27
13312;BME280;34033;48.672;9.376;2023-06-14T02:13:37;98051.75;;;16.11;51.45
13312;BME280;34033;48.672;9.376;2023-06-14T02:16:03;98056.00;;;16.19;51.34
13312;BME280;34033;48.672;9.376;2023-06-14T02:18:29;98057.34;;;16.31;51.21
13312;BME280;34033;48.672;9.376;2023-06-14T02:20:54;98058.72;;;16.42;51.50
13312;BME280;34033;48.672;9.376;2023-06-14T02:23:20;98055.97;;;16.55;51.33
13312;BME280;34033;48.672;9.376;2023-06-14T02:25:46;98054.06;;;16.68;50.73
13312;BME280;34033;48.672;9.376;2023-06-14T02:28:11;98047.91;;;16.73;49.61
13312;BME280;34033;48.672;9.376;2023-06-14T02:30:37;98052.66;;;16.76;49.64
13312;BME280;34033;48.672;9.376;2023-06-14T02:33:02;98049.06;;;16.76;49.57
13312;BME280;34033;48.672;9.376;2023-06-14T02:35:28;98052.66;;;16.76;49.08
13312;BME280;34033;48.672;9.376;2023-06-14T02:37:53;98054.44;;;16.86;48.96
13312;BME280;34033;48.672;9.376;2023-06-14T02:40:19;98057.69;;;16.85;48.95
13312;BME280;34033;48.672;9.376;2023-06-14T02:42:45;98057.84;;;16.94;49.02
13312;BME280;34033;48.672;9.376;2023-06-14T02:45:11;98051.41;;;16.93;48.64
13312;BME280;34033;48.672;9.376;2023-06-14T02:47:36;98053.63;;;16.86;48.79
13312;BME280;34033;48.672;9.376;2023-06-14T02:50:02;98059.34;;;16.82;48.79
13312;BME280;34033;48.672;9.376;2023-06-14T02:52:28;98059.34;;;16.82;49.03
13312;BME280;34033;48.672;9.376;2023-06-14T02:54:53;98052.22;;;16.78;49.09
13312;BME280;34033;48.672;9.376;2023-06-14T02:57:20;98054.25;;;16.61;49.84
13312;BME280;34033;48.672;9.376;2023-06-14T02:59:45;98059.25;;;16.53;50.15
13312;BME280;34033;48.672;9.376;2023-06-14T03:02:10;98059.25;;;16.53;49.88
13312;BME280;34033;48.672;9.376;2023-06-14T03:04:36;98053.59;;;16.53;49.65
13312;BME280;34033;48.672;9.376;2023-06-14T03:07:03;98061.19;;;16.56;49.43
13312;BME280;34033;48.672;9.376;2023-06-14T03:09:37;98067.13;;;16.62;49.08
13312;BME280;34033;48.672;9.376;2023-06-14T03:12:03;98062.97;;;16.66;49.19
13312;BME280;34033;48.672;9.376;2023-06-14T03:14:30;98067.75;;;16.70;48.59
13312;BME280;34033;48.672;9.376;2023-06-14T03:16:56;98066.22;;;16.65;48.96
13312;BME280;34033;48.672;9.376;2023-06-14T03:19:22;98063.41;;;16.65;48.68
13312;BME280;34033;48.672;9.376;2023-06-14T03:21:48;98063.72;;;16.51;48.48
13312;BME280;34033;48.672;9.376;2023-06-14T03:24:15;98064.78;;;16.41;48.96
13312;BME280;34033;48.672;9.376;2023-06-14T03:26:41;98067.03;;;16.30;49.08
13312;BME280;34033;48.672;9.376;2023-06-14T03:29:07;98077.53;;;16.29;49.19
13312;BME280;34033;48.672;9.376;2023-06-14T03:31:34;98078.09;;;16.40;48.96
13312;BME280;34033;48.672;9.376;2023-06-14T03:34:00;98078.44;;;16.42;49.22
13312;BME280;34033;48.672;9.376;2023-06-14T03:36:26;98088.56;;;16.40;49.61
13312;BME280;34033;48.672;9.376;2023-06-14T03:38:53;98083.97;;;16.30;49.68
13312;BME280;34033;48.672;9.376;2023-06-14T03:41:22;98082.47;;;16.25;49.83
13312;BME280;34033;48.672;9.376;2023-06-14T03:43:47;98088.44;;;16.27;50.33
13312;BME280;34033;48.672;9.376;2023-06-14T03:46:12;98086.16;;;16.22;50.11
13312;BME280;34033;48.672;9.376;2023-06-14T03:48:38;98092.81;;;16.12;49.91
13312;BME280;34033;48.672;9.376;2023-06-14T03:51:04;98100.47;;;16.11;50.05
13312;BME280;34033;48.672;9.376;2023-06-14T03:53:30;98102.16;;;16.09;50.10
13312;BME280;34033;48.672;9.376;2023-06-14T03:55:55;98108.66;;;16.06;50.24
13312;BME280;34033;48.672;9.376;2023-06-14T03:58:22;98105.50;;;16.04;50.35
13312;BME280;34033;48.672;9.376;2023-06-14T04:00:47;98108.31;;;16.04;50.42
13312;BME280;34033;48.672;9.376;2023-06-14T04:03:13;98101.94;;;16.00;50.64
13312;BME280;34033;48.672;9.376;2023-06-14T04:05:39;98115.03;;;15.90;50.94
13312;BME280;34033;48.672;9.376;2023-06-14T04:08:08;98107.75;;;15.93;50.72
13312;BME280;34033;48.672;9.376;2023-06-14T04:10:34;98104.25;;;15.85;50.74
13312;BME280;34033;48.672;9.376;2023-06-14T04:12:59;98106.28;;;15.84;50.91
13312;BME280;34033;48.672;9.376;2023-06-14T04:15:25;98109.19;;;15.81;50.91
13312;BME280;34033;48.672;9.376;2023-06-14T04:17:50;98121.84;;;15.93;51.07
13312;BME280;34033;48.672;9.376;2023-06-14T04:20:16;98117.13;;;16.06;50.76
13312;BME280;34033;48.672;9.376;2023-06-14T04:22:42;98119.38;;;16.14;50.49
13312;BME280;34033;48.672;9.376;2023-06-14T04:25:08;98125.72;;;16.18;50.43
13312;BME280;34033;48.672;9.376;2023-06-14T04:27:33;98118.91;;;16.16;50.62
13312;BME280;34033;48.672;9.376;2023-06-14T04:30:02;98119.88;;;16.09;50.66
13312;BME280;34033;48.672;9.376;2023-06-14T04:32:28;98127.88;;;16.11;50.48
13312;BME280;34033;48.672;9.376;2023-06-14T04:35:08;98129.56;;;16.08;50.82
13312;BME280;34033;48.672;9.376;2023-06-14T04:37:34;98139.53;;;16.13;50.40
13312;BME280;34033;48.672;9.376;2023-06-14T04:39:59;98128.69;;;16.11;50.70
13312;BME280;34033;48.672;9.376;2023-06-14T04:42:31;98143.06;;;16.17;50.53
13312;BME280;34033;48.672;9.376;2023-06-14T04:44:57;98139.03;;;16.18;50.31
13312;BME280;34033;48.672;9.376;2023-06-14T04:47:23;98140.38;;;16.30;50.38
13312;BME280;34033;48.672;9.376;2023-06-14T04:49:56;98134.50;;;16.40;50.08
13312;BME280;34033;48.672;9.376;2023-06-14T04:52:22;98138.84;;;16.45;50.00
13312;BME280;34033;48.672;9.376;2023-06-14T04:54:48;98146.59;;;16.41;50.33
13312;BME280;34033;48.672;9.376;2023-06-14T04:57:14;98149.50;;;16.37;50.72
13312;BME280;34033;48.672;9.376;2023-06-14T04:59:43;98163.16;;;16.39;50.42
13312;BME280;34033;48.672;9.376;2023-06-14T05:02:09;98169.81;;;16.28;50.62
13312;BME280;34033;48.672;9.376;2023-06-14T05:04:35;98160.56;;;16.28;50.43
13312;BME280;34033;48.672;9.376;2023-06-14T05:07:07;98164.88;;;16.33;50.90
13312;BME280;34033;48.672;9.376;2023-06-14T05:09:34;98172.63;;;16.48;50.64
13312;BME280;34033;48.672;9.376;2023-06-14T05:11:59;98174.56;;;16.51;50.50
13312;BME280;34033;48.672;9.376;2023-06-14T05:14:25;98169.13;;;16.60;50.48
13312;BME280;34033;48.672;9.376;2023-06-14T05:16:51;98170.59;;;16.68;50.36
13312;BME280;34033;48.672;9.376;2023-06-14T05:19:16;98170.22;;;16.66;49.91
13312;BME280;34033;48.672;9.376;2023-06-14T05:21:43;98175.53;;;16.64;50.37
13312;BME280;34033;48.672;9.376;2023-06-14T05:24:09;98164.16;;;16.68;50.27
13312;BME280;34033;48.672;9.376;2023-06-14T05:26:34;98169.69;;;16.72;50.12
13312;BME280;34033;48.672;9.376;2023-06-14T05:29:00;98168.03;;;16.74;50.04
13312;BME280;34033;48.672;9.376;2023-06-14T05:31:27;98159.81;;;16.63;50.63
13312;BME280;34033;48.672;9.376;2023-06-14T05:33:53;98163.50;;;16.60;50.83
13312;BME280;34033;48.672;9.376;2023-06-14T05:36:19;98169.41;;;16.66;50.75
13312;BME280;34033;48.672;9.376;2023-06-14T05:38:46;98168.66;;;16.82;50.34
13312;BME280;34033;48.672;9.376;2023-06-14T05:41:11;98168.06;;;16.90;49.83
13312;BME280;34033;48.672;9.376;2023-06-14T05:43:37;98165.50;;;16.96;49.46
13312;BME280;34033;48.672;9.376;2023-06-14T05:46:02;98167.81;;;17.01;49.47
13312;BME280;34033;48.672;9.376;2023-06-14T05:48:28;98164.56;;;17.02;49.72
13312;BME280;34033;48.672;9.376;2023-06-14T05:50:54;98171.59;;;17.10;49.28
13312;BME280;34033;48.672;9.376;2023-06-14T05:53:19;98166.59;;;17.18;49.80
13312;BME280;34033;48.672;9.376;2023-06-14T05:55:44;98170.09;;;17.22;49.46
13312;BME280;34033;48.672;9.376;2023-06-14T05:58:10;98168.50;;;17.21;49.57
13312;BME280;34033;48.672;9.376;2023-06-14T06:00:36;98176.19;;;17.21;49.74
13312;BME280;34033;48.672;9.376;2023-06-14T06:03:01;98168.50;;;17.21;48.45
13312;BME280;34033;48.672;9.376;2023-06-14T06:05:26;98173.28;;;17.24;48.18
13312;BME280;34033;48.672;9.376;2023-06-14T06:07:52;98165.88;;;17.30;48.69
13312;BME280;34033;48.672;9.376;2023-06-14T06:10:17;98172.50;;;17.40;47.61
13312;BME280;34033;48.672;9.376;2023-06-14T06:12:42;98173.81;;;17.51;46.96
13312;BME280;34033;48.672;9.376;2023-06-14T06:15:08;98176.44;;;17.59;47.41
13312;BME280;34033;48.672;9.376;2023-06-14T06:17:37;98178.84;;;17.60;47.05
13312;BME280;34033;48.672;9.376;2023-06-14T06:20:03;98184.06;;;17.62;46.17
13312;BME280;34033;48.672;9.376;2023-06-14T06:22:30;98186.44;;;17.63;46.39
13312;BME280;34033;48.672;9.376;2023-06-14T06:24:56;98190.47;;;17.78;46.79
13312;BME280;34033;48.672;9.376;2023-06-14T06:27:21;98186.03;;;17.93;46.29
13312;BME280;34033;48.672;9.376;2023-06-14T06:29:46;98186.88;;;18.07;45.83
13312;BME280;34033;48.672;9.376;2023-06-14T06:32:14;98184.31;;;18.12;45.12
13312;BME280;34033;48.672;9.376;2023-06-14T06:34:39;98175.81;;;18.12;45.11
13312;BME280;34033;48.672;9.376;2023-06-14T06:37:05;98184.31;;;18.12;44.62
13312;BME280;34033;48.672;9.376;2023-06-14T06:39:31;98176.19;;;18.27;44.91
13312;BME280;34033;48.672;9.376;2023-06-14T06:41:56;98177.72;;;18.44;44.88
13312;BME280;34033;48.672;9.376;2023-06-14T06:44:22;98187.94;;;18.54;44.16
13312;BME280;34033;48.672;9.376;2023-06-14T06:46:47;98180.47;;;18.60;44.39
13312;BME280;34033;48.672;9.376;2023-06-14T06:49:12;98189.09;;;18.69;44.45
13312;BME280;34033;48.672;9.376;2023-06-14T06:51:41;98182.53;;;18.72;44.41
13312;BME280;34033;48.672;9.376;2023-06-14T06:54:07;98192.50;;;18.77;44.24
13312;BME280;34033;48.672;9.376;2023-06-14T06:56:33;98189.47;;;18.84;43.96
13312;BME280;34033;48.672;9.376;2023-06-14T06:58:58;98197.28;;;18.93;44.00
13312;BME280;34033;48.672;9.376;2023-06-14T07:01:24;98193.63;;;19.30;44.03
13312;BME280;34033;48.672;9.376;2023-06-14T07:03:49;98196.47;;;19.43;42.80
13312;BME280;34033;48.672;9.376;2023-06-14T07:06:15;98198.84;;;19.32;42.54
13312;BME280;34033;48.672;9.376;2023-06-14T07:08:43;98197.63;;;19.33;42.92
13312;BME280;34033;48.672;9.376;2023-06-14T07:11:09;98201.91;;;19.37;42.79
13312;BME280;34033;48.672;9.376;2023-06-14T07:13:35;98192.28;;;19.47;42.76
13312;BME280;34033;48.672;9.376;2023-06-14T07:16:00;98190.88;;;19.65;43.21
13312;BME280;34033;48.672;9.376;2023-06-14T07:18:26;98190.06;;;19.77;41.75
13312;BME280;34033;48.672;9.376;2023-06-14T07:20:53;98195.19;;;20.04;42.41
13312;BME280;34033;48.672;9.376;2023-06-14T07:23:19;98200.22;;;20.21;42.40
13312;BME280;34033;48.672;9.376;2023-06-14T07:25:45;98203.38;;;20.23;41.88
13312;BME280;34033;48.672;9.376;2023-06-14T07:28:10;98201.28;;;20.15;41.75
13312;BME280;34033;48.672;9.376;2023-06-14T07:30:35;98202.06;;;20.50;41.81
13312;BME280;34033;48.672;9.376;2023-06-14T07:33:01;98206.47;;;20.72;41.35
13312;BME280;34033;48.672;9.376;2023-06-14T07:35:26;98197.31;;;21.08;40.51
13312;BME280;34033;48.672;9.376;2023-06-14T07:37:51;98206.66;;;21.09;40.13
13312;BME280;34033;48.672;9.376;2023-06-14T07:40:17;98200.13;;;21.30;40.22
13312;BME280;34033;48.672;9.376;2023-06-14T07:42:43;98203.91;;;21.27;39.27
13312;BME280;34033;48.672;9.376;2023-06-14T07:45:08;98198.72;;;21.04;39.25
13312;BME280;34033;48.672;9.376;2023-06-14T07:47:34;98209.25;;;21.16;40.00
13312;BME280;34033;48.672;9.376;2023-06-14T07:49:59;98201.06;;;21.27;39.81
13312;BME280;34033;48.672;9.376;2023-06-14T07:52:25;98205.59;;;21.55;39.46
13312;BME280;34033;48.672;9.376;2023-06-14T07:54:50;98201.91;;;21.46;38.85
13312;BME280;34033;48.672;9.376;2023-06-14T07:57:15;98203.72;;;21.80;38.51
13312;BME280;34033;48.672;9.376;2023-06-14T07:59:41;98204.88;;;22.00;38.62
13312;BME280;34033;48.672;9.376;2023-06-14T08:02:06;98198.72;;;22.11;38.49
13312;BME280;34033;48.672;9.376;2023-06-14T08:04:32;98203.16;;;22.12;38.31
13312;BME280;34033;48.672;9.376;2023-06-14T08:06:59;98202.84;;;22.10;38.52
13312;BME280;34033;48.672;9.376;2023-06-14T08:09:24;98200.75;;;21.92;38.76
13312;BME280;34033;48.672;9.376;2023-06-14T08:11:50;98205.59;;;21.74;38.05
13312;BME280;34033;48.672;9.376;2023-06-14T08:14:16;98204.25;;;22.05;38.40
13312;BME280;34033;48.672;9.376;2023-06-14T08:16:41;98198.44;;;22.27;38.17
13312;BME280;34033;48.672;9.376;2023-06-14T08:19:07;98202.06;;;22.37;37.76
13312;BME280;34033;48.672;9.376;2023-06-14T08:21:32;98202.50;;;22.44;37.46
13312;BME280;34033;48.672;9.376;2023-06-14T08:23:58;98201.41;;;22.60;37.44
13312;BME280;34033;48.672;9.376;2023-06-14T08:26:24;98211.06;;;22.54;37.24
13312;BME280;34033;48.672;9.376;2023-06-14T08:28:54;98198.69;;;22.75;35.75
13312;BME280;34033;48.672;9.376;2023-06-14T08:31:20;98205.47;;;22.86;36.20
13312;BME280;34033;48.672;9.376;2023-06-14T08:33:45;98205.94;;;22.85;35.72
13312;BME280;34033;48.672;9.376;2023-06-14T08:36:11;98205.13;;;22.94;36.61
13312;BME280;34033;48.672;9.376;2023-06-14T08:38:37;98202.88;;;23.07;36.21
13312;BME280;34033;48.672;9.376;2023-06-14T08:41:04;98202.69;;;23.10;35.35
13312;BME280;34033;48.672;9.376;2023-06-14T08:43:31;98201.22;;;23.24;35.92
13312;BME280;34033;48.672;9.376;2023-06-14T08:46:02;98200.09;;;23.31;35.87
13312;BME280;34033;48.672;9.376;2023-06-14T08:48:28;98207.38;;;23.32;35.25
13312;BME280;34033;48.672;9.376;2023-06-14T08:50:55;98202.88;;;23.40;35.16
13312;BME280;34033;48.672;9.376;2023-06-14T08:53:27;98207.19;;;23.35;34.49
13312;BME280;34033;48.672;9.376;2023-06-14T08:55:54;98211.25;;;23.43;35.43
13312;BME280;34033;48.672;9.376;2023-06-14T08:58:20;98209.50;;;23.55;35.51
13312;BME280;34033;48.672;9.376;2023-06-14T09:00:49;98206.88;;;23.75;35.35
13312;BME280;34033;48.672;9.376;2023-06-14T09:03:17;98217.72;;;23.62;34.93
13312;BME280;34033;48.672;9.376;2023-06-14T09:05:43;98207.81;;;23.72;34.69
13312;BME280;34033;48.672;9.376;2023-06-14T09:08:08;98210.91;;;23.83;34.61
13312;BME280;34033;48.672;9.376;2023-06-14T09:10:35;98202.94;;;23.87;34.87
13312;BME280;34033;48.672;9.376;2023-06-14T09:13:02;98195.94;;;23.97;34.93
13312;BME280;34033;48.672;9.376;2023-06-14T09:15:29;98197.31;;;23.78;34.54
13312;BME280;34033;48.672;9.376;2023-06-14T09:17:54;98205.81;;;23.63;34.15
13312;BME280;34033;48.672;9.376;2023-06-14T09:20:21;98199.03;;;23.85;34.73
13312;BME280;34033;48.672;9.376;2023-06-14T09:22:48;98199.03;;;23.85;34.28
13312;BME280;34033;48.672;9.376;2023-06-14T09:25:14;98211.13;;;24.03;34.88
13312;BME280;34033;48.672;9.376;2023-06-14T09:27:43;98198.50;;;24.10;33.72
13312;BME280;34033;48.672;9.376;2023-06-14T09:30:09;98195.34;;;24.32;33.79
13312;BME280;34033;48.672;9.376;2023-06-14T09:32:39;98200.38;;;24.37;33.67
13312;BME280;34033;48.672;9.376;2023-06-14T09:35:08;98197.34;;;24.55;33.90
13312;BME280;34033;48.672;9.376;2023-06-14T09:37:34;98197.94;;;24.59;33.33
13312;BME280;34033;48.672;9.376;2023-06-14T09:40:00;98198.75;;;24.74;33.54
13312;BME280;34033;48.672;9.376;2023-06-14T09:42:26;98199.19;;;24.97;33.08
13312;BME280;34033;48.672;9.376;2023-06-14T09:44:54;98199.47;;;25.13;32.34
13312;BME280;34033;48.672;9.376;2023-06-14T09:47:20;98204.88;;;25.26;31.45
13312;BME280;34033;48.672;9.376;2023-06-14T09:49:46;98198.63;;;25.42;31.26
13312;BME280;34033;48.672;9.376;2023-06-14T09:52:17;98206.75;;;24.85;30.38
13312;BME280;34033;48.672;9.376;2023-06-14T09:54:44;98205.41;;;24.95;30.47
13312;BME280;34033;48.672;9.376;2023-06-14T09:57:15;98196.66;;;24.60;30.88
13312;BME280;34033;48.672;9.376;2023-06-14T09:59:45;98201.91;;;24.47;32.16
13312;BME280;34033;48.672;9.376;2023-06-14T10:02:37;98204.75;;;24.47;31.37
13312;BME280;34033;48.672;9.376;2023-06-14T10:07:55;98203.44;;;24.48;32.38
13312;BME280;34033;48.672;9.376;2023-06-14T10:10:21;98199.84;;;24.47;32.03
13312;BME280;34033;48.672;9.376;2023-06-14T10:12:46;98197.06;;;24.53;30.79
13312;BME280;34033;48.672;9.376;2023-06-14T10:15:19;98197.66;;;24.72;31.41
13312;BME280;34033;48.672;9.376;2023-06-14T10:18:19;98191.94;;;24.57;30.94
13312;BME280;34033;48.672;9.376;2023-06-14T10:23:52;98186.19;;;25.45;30.44
13312;BME280;34033;48.672;9.376;2023-06-14T10:26:22;98184.84;;;25.96;29.57
13312;BME280;34033;48.672;9.376;2023-06-14T10:29:07;98180.63;;;26.32;28.72
13312;BME280;34033;48.672;9.376;2023-06-14T10:31:44;98185.50;;;26.72;28.15
13312;BME280;34033;48.672;9.376;2023-06-14T10:34:11;98181.09;;;27.02;28.17
13312;BME280;34033;48.672;9.376;2023-06-14T10:36:40;98185.03;;;27.36;26.99
13312;BME280;34033;48.672;9.376;2023-06-14T10:39:08;98187.00;;;27.50;26.86
13312;BME280;34033;48.672;9.376;2023-06-14T10:41:40;98185.06;;;27.42;27.42
13312;BME280;34033;48.672;9.376;2023-06-14T10:46:52;98181.22;;;26.62;27.84
13312;BME280;34033;48.672;9.376;2023-06-14T10:49:43;98177.47;;;26.09;28.87
13312;BME280;34033;48.672;9.376;2023-06-14T10:52:14;98179.75;;;25.50;28.78
13312;BME280;34033;48.672;9.376;2023-06-14T10:54:59;98181.88;;;25.20;29.48
13312;BME280;34033;48.672;9.376;2023-06-14T10:57:26;98186.34;;;25.07;29.27
13312;BME280;34033;48.672;9.376;2023-06-14T10:59:51;98189.13;;;25.01;29.30
13312;BME280;34033;48.672;9.376;2023-06-14T11:05:03;98181.66;;;25.39;29.61
13312;BME280;34033;48.672;9.376;2023-06-14T11:08:11;98175.09;;;25.53;30.18
13312;BME280;34033;48.672;9.376;2023-06-14T11:10:41;98169.81;;;25.46;30.38
13312;BME280;34033;48.672;9.376;2023-06-14T11:13:08;98174.16;;;25.76;30.08
13312;BME280;34033;48.672;9.376;2023-06-14T11:15:35;98174.09;;;26.11;29.08
13312;BME280;34033;48.672;9.376;2023-06-14T11:18:05;98175.25;;;26.39;28.65
13312;BME280;34033;48.672;9.376;2023-06-14T11:20:33;98173.84;;;26.29;27.86
13312;BME280;34033;48.672;9.376;2023-06-14T11:22:58;98174.78;;;26.46;28.45
13312;BME280;34033;48.672;9.376;2023-06-14T11:25:25;98173.00;;;26.75;28.38
13312;BME280;34033;48.672;9.376;2023-06-14T11:27:52;98170.94;;;27.01;27.94
13312;BME280;34033;48.672;9.376;2023-06-14T11:30:17;98168.25;;;27.23;26.97
13312;BME280;34033;48.672;9.376;2023-06-14T11:32:47;98175.84;;;27.26;27.25
13312;BME280;34033;48.672;9.376;2023-06-14T11:35:12;98173.47;;;26.93;28.10
13312;BME280;34033;48.672;9.376;2023-06-14T11:37:39;98174.41;;;27.11;27.39
13312;BME280;34033;48.672;9.376;2023-06-14T11:40:06;98176.19;;;27.08;28.00
13312;BME280;34033;48.672;9.376;2023-06-14T11:42:37;98168.97;;;27.18;26.99
13312;BME280;34033;48.672;9.376;2023-06-14T11:45:04;98167.34;;;27.43;27.31
13312;BME280;34033;48.672;9.376;2023-06-14T11:47:32;98163.91;;;27.33;27.21
13312;BME280;34033;48.672;9.376;2023-06-14T11:49:59;98161.72;;;27.23;27.92
13312;BME280;34033;48.672;9.376;2023-06-14T11:52:25;98167.09;;;27.47;27.71
13312;BME280;34033;48.672;9.376;2023-06-14T11:54:51;98172.41;;;27.22;27.03
13312;BME280;34033;48.672;9.376;2023-06-14T11:57:18;98161.00;;;27.65;27.19
13312;BME280;34033;48.672;9.376;2023-06-14T11:59:44;98155.66;;;27.89;27.20
13312;BME280;34033;48.672;9.376;2023-06-14T12:02:09;98158.03;;;27.54;26.69
13312;BME280;34033;48.672;9.376;2023-06-14T12:04:35;98164.50;;;27.12;27.24
13312;BME280;34033;48.672;9.376;2023-06-14T12:07:14;98164.16;;;27.67;26.80
13312;BME280;34033;48.672;9.376;2023-06-14T12:12:24;98157.53;;;28.90;25.56
13312;BME280;34033;48.672;9.376;2023-06-14T12:14:51;98143.94;;;29.13;25.41
13312;BME280;34033;48.672;9.376;2023-06-14T12:17:17;98154.13;;;29.20;25.00
13312;BME280;34033;48.672;9.376;2023-06-14T12:19:44;98152.53;;;28.74;25.78
13312;BME280;34033;48.672;9.376;2023-06-14T12:22:11;98161.81;;;28.25;26.05
13312;BME280;34033;48.672;9.376;2023-06-14T12:24:36;98160.97;;;28.13;26.56
13312;BME280;34033;48.672;9.376;2023-06-14T12:27:03;98153.63;;;27.58;26.69
13312;BME280;34033;48.672;9.376;2023-06-14T12:29:29;98154.88;;;27.52;26.78
13312;BME280;34033;48.672;9.376;2023-06-14T12:31:55;98155.19;;;27.54;26.56
13312;BME280;34033;48.672;9.376;2023-06-14T12:34:25;98144.38;;;27.43;26.63
13312;BME280;34033;48.672;9.376;2023-06-14T12:36:53;98155.25;;;27.65;26.15
13312;BME280;34033;48.672;9.376;2023-06-14T12:39:18;98156.94;;;27.88;26.30
13312;BME280;34033;48.672;9.376;2023-06-14T12:41:44;98151.22;;;27.94;26.25
13312;BME280;34033;48.672;9.376;2023-06-14T12:44:11;98144.34;;;28.28;25.74
13312;BME280;34033;48.672;9.376;2023-06-14T12:46:36;98138.09;;;28.46;25.39
13312;BME280;34033;48.672;9.376;2023-06-14T12:49:02;98149.84;;;28.43;25.44
13312;BME280;34033;48.672;9.376;2023-06-14T12:51:27;98151.16;;;28.42;25.35
13312;BME280;34033;48.672;9.376;2023-06-14T12:53:52;98147.59;;;28.80;24.33
13312;BME280;34033;48.672;9.376;2023-06-14T12:56:18;98142.34;;;29.29;24.74
13312;BME280;34033;48.672;9.376;2023-06-14T12:58:43;98144.69;;;29.58;23.89
13312;BME280;34033;48.672;9.376;2023-06-14T13:01:09;98144.88;;;29.88;24.38
13312;BME280;34033;48.672;9.376;2023-06-14T13:03:34;98146.22;;;30.39;23.56
13312;BME280;34033;48.672;9.376;2023-06-14T13:06:00;98143.09;;;30.48;23.58
13312;BME280;34033;48.672;9.376;2023-06-14T13:08:26;98145.59;;;30.11;23.70
13312;BME280;34033;48.672;9.376;2023-06-14T13:10:52;98143.44;;;29.37;24.34
13312;BME280;34033;48.672;9.376;2023-06-14T13:13:18;98147.00;;;28.59;25.35